sensor_id;sensor_type;location;lat;lon;timestamp;pressure;altitude;pressure_sealevel;temperature;humidity
17649;BME280;8943;51.110;-4.158;2022-12-07T03:19:48;102022.75;;;11.65;47.01
17649;BME280;8943;51.110;-4.158;2022-12-07T03:22:47;102014.47;;;11.70;46.46
17649;BME280;8943;51.110;-4.158;2022-12-07T06:37:16;101969.22;;;10.89;48.03
17649;BME280;8943;51.110;-4.158;2022-12-07T06:39:53;101966.19;;;10.95;47.94
17649;BME280;8943;51.110;-4.158;2022-12-07T06:42:35;101963.38;;;10.98;48.38
17649;BME280;8943;51.110;-4.158;2022-12-07T06:45:35;101968.78;;;10.97;48.48
17649;BME280;8943;51.110;-4.158;2022-12-07T07:11:22;101976.09;;;10.93;48.29
17649;BME280;8943;51.110;-4.158;2022-12-07T08:23:11;101982.31;;;11.09;48.83
17649;BME280;8943;51.110;-4.158;2022-12-07T08:25:42;101985.56;;;11.15;49.16
17649;BME280;8943;51.110;-4.158;2022-12-07T08:28:21;101989.88;;;11.17;49.08
17649;BME280;8943;51.110;-4.158;2022-12-07T08:31:21;101985.41;;;11.18;49.14
17649;BME280;8943;51.110;-4.158;2022-12-07T09:44:03;101979.22;;;11.95;48.80
17649;BME280;8943;51.110;-4.158;2022-12-07T10:52:07;101921.72;;;12.03;47.24
17649;BME280;8943;51.110;-4.158;2022-12-07T10:55:22;101917.91;;;12.07;47.50
17649;BME280;8943;51.110;-4.158;2022-12-07T11:01:17;101908.75;;;12.11;46.95
17649;BME280;8943;51.110;-4.158;2022-12-07T11:04:49;101911.16;;;12.16;46.90
17649;BME280;8943;51.110;-4.158;2022-12-07T11:08:09;101899.63;;;12.16;46.65
17649;BME280;8943;51.110;-4.158;2022-12-07T11:11:04;101905.72;;;12.18;47.01
17649;BME280;8943;51.110;-4.158;2022-12-07T11:14:17;101906.28;;;12.23;46.84
17649;BME280;8943;51.110;-4.158;2022-12-07T11:23:43;101888.94;;;12.30;46.77
17649;BME280;8943;51.110;-4.158;2022-12-07T11:26:23;101888.53;;;12.36;46.51
17649;BME280;8943;51.110;-4.158;2022-12-07T11:32:49;101884.34;;;12.46;46.19
17649;BME280;8943;51.110;-4.158;2022-12-07T11:35:45;101881.47;;;12.49;46.07
17649;BME280;8943;51.110;-4.158;2022-12-07T11:38:26;101876.69;;;12.54;46.22
17649;BME280;8943;51.110;-4.158;2022-12-07T11:41:04;101872.78;;;12.60;45.69
17649;BME280;8943;51.110;-4.158;2022-12-07T11:44:04;101871.41;;;12.67;46.13
17649;BME280;8943;51.110;-4.158;2022-12-07T11:46:58;101866.56;;;12.74;46.04
17649;BME280;8943;51.110;-4.158;2022-12-07T11:49:45;101872.06;;;12.85;46.07
17649;BME280;8943;51.110;-4.158;2022-12-07T11:52:24;101872.03;;;12.99;46.40
17649;BME280;8943;51.110;-4.158;2022-12-07T11:54:59;101869.19;;;13.15;46.20
17649;BME280;8943;51.110;-4.158;2022-12-07T11:57:41;101865.22;;;13.35;46.27
17649;BME280;8943;51.110;-4.158;2022-12-07T12:00:49;101862.28;;;13.52;45.76
17649;BME280;8943;51.110;-4.158;2022-12-07T12:03:44;101861.44;;;13.64;45.15
17649;BME280;8943;51.110;-4.158;2022-12-07T12:06:33;101849.78;;;13.78;45.46
17649;BME280;8943;51.110;-4.158;2022-12-07T12:09:05;101850.00;;;13.88;44.82
17649;BME280;8943;51.110;-4.158;2022-12-07T12:12:18;101844.97;;;13.96;44.61
17649;BME280;8943;51.110;-4.158;2022-12-07T12:15:37;101841.41;;;14.08;44.46
17649;BME280;8943;51.110;-4.158;2022-12-07T12:21:08;101833.78;;;14.28;44.25
17649;BME280;8943;51.110;-4.158;2022-12-07T12:23:41;101824.56;;;14.32;43.72
17649;BME280;8943;51.110;-4.158;2022-12-07T12:26:17;101821.13;;;14.30;44.02
17649;BME280;8943;51.110;-4.158;2022-12-07T12:28:53;101816.72;;;14.29;43.88
17649;BME280;8943;51.110;-4.158;2022-12-07T12:31:36;101809.53;;;14.29;43.68
17649;BME280;8943;51.110;-4.158;2022-12-07T12:34:30;101807.38;;;14.34;43.46
17649;BME280;8943;51.110;-4.158;2022-12-07T12:36:58;101794.31;;;14.30;43.28
17649;BME280;8943;51.110;-4.158;2022-12-07T12:39:27;101790.03;;;14.27;43.25
17649;BME280;8943;51.110;-4.158;2022-12-07T12:42:00;101781.34;;;14.24;43.09
17649;BME280;8943;51.110;-4.158;2022-12-07T12:45:16;101789.00;;;14.17;42.94
17649;BME280;8943;51.110;-4.158;2022-12-07T12:48:28;101783.44;;;14.07;42.87
17649;BME280;8943;51.110;-4.158;2022-12-07T12:54:03;101777.22;;;13.94;43.00
17649;BME280;8943;51.110;-4.158;2022-12-07T12:56:39;101771.66;;;13.97;43.04
17649;BME280;8943;51.110;-4.158;2022-12-07T12:59:25;101768.00;;;13.98;43.08
17649;BME280;8943;51.110;-4.158;2022-12-07T13:02:07;101760.69;;;14.00;42.72
17649;BME280;8943;51.110;-4.158;2022-12-07T13:04:52;101760.03;;;14.09;42.97
17649;BME280;8943;51.110;-4.158;2022-12-07T13:11:17;101768.31;;;14.43;43.12
17649;BME280;8943;51.110;-4.158;2022-12-07T13:13:49;101768.38;;;14.67;42.85
17649;BME280;8943;51.110;-4.158;2022-12-07T13:16:39;101757.16;;;14.86;42.34
17649;BME280;8943;51.110;-4.158;2022-12-07T13:22:50;101748.31;;;15.08;41.90
17649;BME280;8943;51.110;-4.158;2022-12-07T13:25:48;101748.72;;;15.14;40.82
17649;BME280;8943;51.110;-4.158;2022-12-07T13:28:20;101742.78;;;14.98;40.97
17649;BME280;8943;51.110;-4.158;2022-12-07T13:31:03;101740.53;;;14.81;40.66
17649;BME280;8943;51.110;-4.158;2022-12-07T13:33:36;101746.53;;;14.60;40.75
17649;BME280;8943;51.110;-4.158;2022-12-07T13:36:16;101734.22;;;14.45;40.35
17649;BME280;8943;51.110;-4.158;2022-12-07T13:38:54;101732.56;;;14.31;40.87
17649;BME280;8943;51.110;-4.158;2022-12-07T13:41:24;101733.22;;;14.22;41.25
17649;BME280;8943;51.110;-4.158;2022-12-07T13:44:05;101715.19;;;14.24;41.36
17649;BME280;8943;51.110;-4.158;2022-12-07T13:46:44;101716.03;;;14.25;41.40
17649;BME280;8943;51.110;-4.158;2022-12-07T13:49:20;101721.41;;;14.25;41.56
17649;BME280;8943;51.110;-4.158;2022-12-07T13:52:25;101730.41;;;14.24;41.58
17649;BME280;8943;51.110;-4.158;2022-12-07T13:54:58;101716.94;;;14.12;41.40
17649;BME280;8943;51.110;-4.158;2022-12-07T13:57:30;101717.63;;;14.03;41.56
17649;BME280;8943;51.110;-4.158;2022-12-07T14:00:02;101712.91;;;13.94;41.64
17649;BME280;8943;51.110;-4.158;2022-12-07T14:02:34;101713.16;;;13.91;41.73
17649;BME280;8943;51.110;-4.158;2022-12-07T14:05:15;101707.28;;;13.86;42.16
17649;BME280;8943;51.110;-4.158;2022-12-07T14:07:52;101708.53;;;13.80;41.88
17649;BME280;8943;51.110;-4.158;2022-12-07T14:10:25;101704.59;;;13.73;42.14
17649;BME280;8943;51.110;-4.158;2022-12-07T14:12:56;101704.38;;;13.63;42.48
17649;BME280;8943;51.110;-4.158;2022-12-07T14:21:17;101687.38;;;13.52;42.66
17649;BME280;8943;51.110;-4.158;2022-12-07T14:24:25;101687.78;;;13.46;42.78
17649;BME280;8943;51.110;-4.158;2022-12-07T14:27:16;101681.38;;;13.35;42.81
17649;BME280;8943;51.110;-4.158;2022-12-07T14:29:47;101680.09;;;13.28;42.90
17649;BME280;8943;51.110;-4.158;2022-12-07T14:32:19;101683.38;;;13.19;42.93
17649;BME280;8943;51.110;-4.158;2022-12-07T14:35:09;101675.78;;;13.13;43.12
17649;BME280;8943;51.110;-4.158;2022-12-07T14:37:41;101672.66;;;13.06;43.42
17649;BME280;8943;51.110;-4.158;2022-12-07T14:40:13;101683.56;;;13.03;43.57
17649;BME280;8943;51.110;-4.158;2022-12-07T14:42:59;101673.81;;;13.02;43.37
17649;BME280;8943;51.110;-4.158;2022-12-07T14:45:43;101672.41;;;12.97;43.63
17649;BME280;8943;51.110;-4.158;2022-12-07T14:48:13;101662.81;;;12.94;43.81
17649;BME280;8943;51.110;-4.158;2022-12-07T14:51:03;101670.06;;;12.92;43.50
17649;BME280;8943;51.110;-4.158;2022-12-07T14:53:57;101663.19;;;12.88;43.65
17649;BME280;8943;51.110;-4.158;2022-12-07T14:56:25;101664.47;;;12.82;43.50
17649;BME280;8943;51.110;-4.158;2022-12-07T14:58:57;101667.56;;;12.76;43.73
17649;BME280;8943;51.110;-4.158;2022-12-07T15:01:26;101671.53;;;12.71;43.66
17649;BME280;8943;51.110;-4.158;2022-12-07T15:03:57;101665.81;;;12.62;43.64
17649;BME280;8943;51.110;-4.158;2022-12-07T15:06:30;101669.56;;;12.60;43.73
17649;BME280;8943;51.110;-4.158;2022-12-07T15:09:04;101666.06;;;12.59;43.74
17649;BME280;8943;51.110;-4.158;2022-12-07T15:11:37;101672.25;;;12.60;43.52
17649;BME280;8943;51.110;-4.158;2022-12-07T15:14:12;101659.94;;;12.57;44.09
17649;BME280;8943;51.110;-4.158;2022-12-07T15:16:43;101655.66;;;12.55;43.88
17649;BME280;8943;51.110;-4.158;2022-12-07T15:19:38;101661.31;;;12.50;43.94
17649;BME280;8943;51.110;-4.158;2022-12-07T15:22:11;101650.16;;;12.44;44.01
17649;BME280;8943;51.110;-4.158;2022-12-07T15:24:41;101655.72;;;12.41;43.98
17649;BME280;8943;51.110;-4.158;2022-12-07T15:27:11;101648.75;;;12.38;44.43
17649;BME280;8943;51.110;-4.158;2022-12-07T15:30:07;101648.97;;;12.35;44.34
17649;BME280;8943;51.110;-4.158;2022-12-07T15:32:50;101648.00;;;12.36;44.35
17649;BME280;8943;51.110;-4.158;2022-12-07T15:35:39;101640.94;;;12.35;44.54
17649;BME280;8943;51.110;-4.158;2022-12-07T15:38:10;101642.66;;;12.36;44.40
17649;BME280;8943;51.110;-4.158;2022-12-07T15:41:17;101635.69;;;12.33;44.48
17649;BME280;8943;51.110;-4.158;2022-12-07T15:43:50;101638.66;;;12.29;44.45
17649;BME280;8943;51.110;-4.158;2022-12-07T15:50:47;101629.25;;;12.23;44.39
17649;BME280;8943;51.110;-4.158;2022-12-07T15:53:16;101616.66;;;12.25;44.46
17649;BME280;8943;51.110;-4.158;2022-12-07T15:56:30;101620.06;;;12.27;44.49
17649;BME280;8943;51.110;-4.158;2022-12-07T16:04:44;101620.06;;;12.27;44.72
17649;BME280;8943;51.110;-4.158;2022-12-07T16:07:16;101617.28;;;12.29;45.09
17649;BME280;8943;51.110;-4.158;2022-12-07T16:09:46;101610.91;;;12.31;44.07
17649;BME280;8943;51.110;-4.158;2022-12-07T16:12:27;101607.38;;;12.31;44.56
17649;BME280;8943;51.110;-4.158;2022-12-07T16:14:57;101609.94;;;12.32;44.41
17649;BME280;8943;51.110;-4.158;2022-12-07T16:17:27;101615.28;;;12.32;44.57
17649;BME280;8943;51.110;-4.158;2022-12-07T16:22:47;101596.69;;;12.31;44.51
17649;BME280;8943;51.110;-4.158;2022-12-07T16:25:22;101596.56;;;12.32;44.62
17649;BME280;8943;51.110;-4.158;2022-12-07T16:28:21;101595.53;;;12.35;44.50
17649;BME280;8943;51.110;-4.158;2022-12-07T16:31:27;101599.25;;;12.32;44.64
17649;BME280;8943;51.110;-4.158;2022-12-07T16:33:57;101602.22;;;12.28;44.56
17649;BME280;8943;51.110;-4.158;2022-12-07T16:36:38;101595.47;;;12.22;45.10
17649;BME280;8943;51.110;-4.158;2022-12-07T16:51:35;101597.38;;;11.93;45.28
17649;BME280;8943;51.110;-4.158;2022-12-07T16:54:35;101596.81;;;11.88;44.97
17649;BME280;8943;51.110;-4.158;2022-12-07T17:08:16;101575.16;;;11.78;45.16
17649;BME280;8943;51.110;-4.158;2022-12-07T17:11:18;101583.19;;;11.78;45.24
17649;BME280;8943;51.110;-4.158;2022-12-07T17:14:17;101575.06;;;11.80;45.32
17649;BME280;8943;51.110;-4.158;2022-12-07T17:17:23;101584.22;;;11.76;45.25
17649;BME280;8943;51.110;-4.158;2022-12-07T17:20:15;101583.47;;;11.74;45.01
17649;BME280;8943;51.110;-4.158;2022-12-07T17:22:55;101583.59;;;11.72;45.22
17649;BME280;8943;51.110;-4.158;2022-12-07T17:29:02;101570.16;;;11.59;45.62
17649;BME280;8943;51.110;-4.158;2022-12-07T17:31:41;101567.50;;;11.59;45.22
17649;BME280;8943;51.110;-4.158;2022-12-07T17:34:31;101561.19;;;11.60;45.48
17649;BME280;8943;51.110;-4.158;2022-12-07T17:40:56;101558.03;;;11.68;44.88
17649;BME280;8943;51.110;-4.158;2022-12-07T17:43:45;101552.59;;;11.70;45.22
17649;BME280;8943;51.110;-4.158;2022-12-07T17:47:04;101546.59;;;11.66;45.37
17649;BME280;8943;51.110;-4.158;2022-12-07T22:04:57;101390.06;;;10.84;44.32
17649;BME280;8943;51.110;-4.158;2022-12-07T22:07:53;101384.91;;;10.81;44.20
17649;BME280;8943;51.110;-4.158;2022-12-07T22:10:35;101382.53;;;10.76;43.96
17649;BME280;8943;51.110;-4.158;2022-12-07T22:13:49;101372.75;;;10.63;44.35
17649;BME280;8943;51.110;-4.158;2022-12-07T23:51:29;101292.31;;;8.17;46.35
